Time;durP1;ratioP1;P1;durP2;ratioP2;P2;SDS_P1;SDS_P2;PMS_P1;PMS_P2;Temp;Humidity;BMP_temperature;BMP_pressure;BME280_temperature;BME280_humidity;BME280_pressure;Samples;Min_cycle;Max_cycle;Signal;HPM_P1;HPM_P2
2021/07/23 00:01:10;;;;;;;13.43;7.55;;;;;;;12.12;84.20;102299.44;4992333;28;20129;-76
2021/07/23 00:03:36;;;;;;;15.57;8.63;;;;;;;12.12;84.95;102302.09;4993338;28;20390;-75
2021/07/23 00:06:02;;;;;;;19.27;10.52;;;;;;;12.10;84.51;102298.69;4993707;28;20125;-75
2021/07/23 00:08:27;;;;;;;20.02;10.38;;;;;;;12.10;84.78;102301.34;4996574;28;20078;-75
2021/07/23 00:10:53;;;;;;;14.73;8.15;;;;;;;12.09;84.44;102298.78;4998114;28;20062;-75
2021/07/23 00:13:18;;;;;;;13.77;7.63;;;;;;;12.08;84.58;102300.63;4995753;28;20034;-75
2021/07/23 00:15:43;;;;;;;15.93;8.18;;;;;;;12.05;84.86;102298.19;4994880;28;20030;-75
2021/07/23 00:18:09;;;;;;;10.77;7.15;;;;;;;12.03;85.41;102297.41;4992399;28;20057;-77
2021/07/23 00:20:34;;;;;;;13.93;7.78;;;;;;;12.01;85.51;102299.38;4992948;28;20041;-75
2021/07/23 00:23:00;;;;;;;18.92;6.80;;;;;;;12.01;85.23;102294.03;4992976;28;20479;-75
2021/07/23 00:25:25;;;;;;;11.48;6.55;;;;;;;11.99;84.67;102298.63;4990995;28;20477;-75
2021/07/23 00:27:50;;;;;;;14.82;7.55;;;;;;;11.97;84.92;102292.53;4993061;28;20073;-75
2021/07/23 00:30:16;;;;;;;11.60;6.20;;;;;;;11.94;84.51;102298.97;4992294;28;20042;-75
2021/07/23 00:32:41;;;;;;;14.43;7.80;;;;;;;11.93;85.38;102296.41;4992843;28;20128;-75
2021/07/23 00:35:08;;;;;;;17.10;7.82;;;;;;;11.92;85.86;102303.53;4992820;28;20039;-75
2021/07/23 00:37:33;;;;;;;14.32;7.07;;;;;;;11.97;86.01;102300.53;4992033;28;20482;-75
2021/07/23 00:39:58;;;;;;;12.88;7.25;;;;;;;11.95;85.73;102298.00;4992543;28;20110;-74
2021/07/23 00:42:53;;;;;;;17.40;7.20;;;;;;;11.93;85.61;102296.41;4992139;28;20031;-75
2021/07/23 00:45:19;;;;;;;12.88;7.57;;;;;;;11.90;85.75;102299.28;4978357;28;20046;-75
2021/07/23 00:47:48;;;;;;;11.85;6.93;;;;;;;11.89;85.57;102295.75;4992590;28;20041;-74
2021/07/23 00:50:14;;;;;;;14.60;7.10;;;;;;;11.87;85.61;102291.47;4992078;28;20101;-75
2021/07/23 00:52:40;;;;;;;13.38;7.40;;;;;;;11.85;85.99;102290.75;4992621;28;20470;-74
2021/07/23 00:55:07;;;;;;;16.48;8.82;;;;;;;11.85;86.26;102291.59;4992376;28;20034;-75
2021/07/23 00:57:34;;;;;;;15.52;7.95;;;;;;;11.82;86.11;102298.03;4992032;28;20273;-75
2021/07/23 01:00:01;;;;;;;14.70;8.55;;;;;;;11.83;86.26;102297.03;4992521;28;20026;-74
2021/07/23 01:02:27;;;;;;;12.68;7.57;;;;;;;11.82;86.15;102299.81;4991872;28;20065;-75
2021/07/23 01:04:52;;;;;;;18.42;8.50;;;;;;;11.79;86.17;102287.59;4992325;28;20062;-75
2021/07/23 01:07:18;;;;;;;18.15;8.77;;;;;;;11.79;86.58;102295.59;4994781;28;20056;-75
2021/07/23 01:09:43;;;;;;;13.90;7.25;;;;;;;11.77;86.09;102292.16;4996013;28;20061;-74
2021/07/23 01:12:10;;;;;;;18.23;8.10;;;;;;;11.75;86.30;102295.91;4996135;28;20038;-74
2021/07/23 01:14:37;;;;;;;14.60;8.30;;;;;;;11.72;86.34;102301.44;4995240;28;20537;-74
2021/07/23 01:17:03;;;;;;;18.15;9.05;;;;;;;11.70;86.66;102296.22;4995832;28;20031;-75
2021/07/23 01:19:45;;;;;;;18.00;8.52;;;;;;;11.67;86.15;102283.13;4995459;28;20030;-75
2021/07/23 01:22:13;;;;;;;15.25;8.35;;;;;;;11.64;86.38;102291.34;4996009;28;20041;-75
2021/07/23 01:24:39;;;;;;;17.45;8.82;;;;;;;11.62;86.92;102286.13;4995182;28;20385;-75
2021/07/23 01:27:05;;;;;;;15.13;8.73;;;;;;;11.61;86.79;102289.78;4995670;28;20034;-74
2021/07/23 01:29:30;;;;;;;17.65;8.73;;;;;;;11.61;87.04;102297.75;4995018;28;20489;-75
2021/07/23 01:31:56;;;;;;;18.52;8.43;;;;;;;11.60;86.96;102296.06;4995523;28;20066;-75
2021/07/23 01:34:21;;;;;;;15.98;8.75;;;;;;;11.60;87.16;102304.03;4994562;28;20088;-76
2021/07/23 01:36:46;;;;;;;17.40;8.52;;;;;;;11.60;87.37;102298.72;4995454;28;20038;-75
2021/07/23 01:39:14;;;;;;;18.67;9.60;;;;;;;11.59;87.28;102301.50;4995666;28;20088;-75
2021/07/23 01:41:40;;;;;;;17.67;8.82;;;;;;;11.54;86.89;102301.81;4994751;28;20072;-75
2021/07/23 01:44:06;;;;;;;18.45;9.15;;;;;;;11.56;87.33;102299.88;4995834;28;20038;-75
2021/07/23 01:46:31;;;;;;;18.85;9.70;;;;;;;11.55;87.11;102297.34;4994610;28;20035;-75
2021/07/23 01:48:56;;;;;;;16.88;9.90;;;;;;;11.51;86.85;102301.19;4995192;28;20113;-75
2021/07/23 01:51:23;;;;;;;20.15;9.85;;;;;;;11.46;86.38;102302.38;4994964;28;20274;-75
2021/07/23 01:53:49;;;;;;;18.27;9.57;;;;;;;11.44;87.16;102303.44;4995174;28;20047;-75
2021/07/23 01:56:14;;;;;;;17.15;9.60;;;;;;;11.43;87.04;102301.72;4995168;28;20027;-74
2021/07/23 01:58:40;;;;;;;19.15;9.85;;;;;;;11.43;87.48;102293.72;4994751;28;20450;-75
2021/07/23 02:01:05;;;;;;;20.02;10.27;;;;;;;11.42;87.43;102287.56;4993953;28;20040;-74
2021/07/23 02:03:30;;;;;;;18.75;9.70;;;;;;;11.39;87.19;102287.78;4994788;28;20066;-75
2021/07/23 02:05:56;;;;;;;21.30;9.80;;;;;;;11.40;87.18;102293.94;4995026;28;20471;-75
2021/07/23 02:08:21;;;;;;;18.00;9.82;;;;;;;11.39;87.24;102292.25;4994327;28;20050;-76
2021/07/23 02:10:46;;;;;;;18.55;10.07;;;;;;;11.36;86.82;102292.47;4994865;28;20042;-75
2021/07/23 02:13:12;;;;;;;23.73;10.35;;;;;;;11.33;87.23;102284.69;4994752;28;20474;-75
2021/07/23 02:15:37;;;;;;;20.55;10.20;;;;;;;11.32;87.81;102291.84;4994171;28;20034;-75
2021/07/23 02:18:02;;;;;;;20.98;10.48;;;;;;;11.27;87.36;102292.16;4994228;28;20394;-75
2021/07/23 02:20:28;;;;;;;24.15;11.23;;;;;;;11.26;87.98;102290.44;4993910;28;20093;-75
2021/07/23 02:22:53;;;;;;;20.42;9.88;;;;;;;11.24;88.33;102292.38;4994847;28;20121;-75
2021/07/23 02:25:18;;;;;;;19.85;9.55;;;;;;;11.22;87.84;102296.94;4993398;28;20097;-75
2021/07/23 02:27:44;;;;;;;16.60;10.07;;;;;;;11.16;87.30;102291.22;4993883;28;20034;-75
2021/07/23 02:30:10;;;;;;;18.98;10.70;;;;;;;11.18;88.21;102284.81;4993366;28;20116;-74
2021/07/23 02:32:35;;;;;;;19.02;10.80;;;;;;;11.17;88.19;102280.44;4993606;28;20561;-75
2021/07/23 02:35:01;;;;;;;23.15;11.38;;;;;;;11.18;88.53;102276.84;4993261;28;20035;-74
2021/07/23 02:37:26;;;;;;;23.67;11.25;;;;;;;11.20;88.61;102282.06;4976666;28;20035;-75
2021/07/23 02:39:51;;;;;;;24.50;11.48;;;;;;;11.21;88.61;102279.28;4994353;28;20058;-74
2021/07/23 02:42:17;;;;;;;24.30;10.93;;;;;;;11.22;88.61;102282.78;4994285;28;20081;-74
2021/07/23 02:44:42;;;;;;;18.98;11.05;;;;;;;11.22;88.58;102270.31;4976167;28;20042;-75
2021/07/23 02:47:07;;;;;;;21.40;10.85;;;;;;;11.21;88.43;102270.41;4994056;28;20070;-75
2021/07/23 02:49:33;;;;;;;21.70;9.95;;;;;;;11.21;88.29;102271.28;4993355;28;20489;-75
2021/07/23 02:51:58;;;;;;;22.98;11.13;;;;;;;11.19;88.28;102267.84;4993922;28;20045;-75
2021/07/23 02:54:23;;;;;;;24.63;12.02;;;;;;;11.19;88.39;102275.84;4994020;28;20501;-74
2021/07/23 02:56:49;;;;;;;24.67;11.10;;;;;;;11.14;87.88;102264.69;4993422;28;20035;-74
2021/07/23 02:59:14;;;;;;;22.35;10.95;;;;;;;11.13;88.48;102265.63;4993995;28;20029;-74
2021/07/23 03:01:40;;;;;;;23.30;12.45;;;;;;;11.13;88.65;102268.28;4993127;28;20368;-75
2021/07/23 03:04:05;;;;;;;22.52;11.63;;;;;;;11.13;88.79;102260.31;4993734;28;20035;-74
2021/07/23 03:06:30;;;;;;;19.90;12.27;;;;;;;11.11;88.72;102254.25;4991789;28;20038;-75
2021/07/23 03:08:56;;;;;;;29.90;11.70;;;;;;;11.08;88.49;102257.13;4993686;28;20085;-74
2021/07/23 03:11:21;;;;;;;27.88;12.93;;;;;;;11.06;88.88;102254.56;4993751;28;20046;-74
2021/07/23 03:13:46;;;;;;;23.10;11.82;;;;;;;11.04;88.99;102258.28;4992969;28;20065;-74
2021/07/23 03:16:14;;;;;;;22.52;12.30;;;;;;;10.99;88.57;102247.09;4993583;28;20041;-74
2021/07/23 03:18:40;;;;;;;24.42;12.35;;;;;;;11.02;89.24;102246.91;4992709;28;20038;-75
2021/07/23 03:21:06;;;;;;;29.25;13.35;;;;;;;11.03;89.53;102244.13;4993522;28;20037;-75
2021/07/23 03:23:32;;;;;;;21.52;11.25;;;;;;;10.97;88.77;102244.53;4992963;28;20050;-75
2021/07/23 03:25:58;;;;;;;27.58;13.52;;;;;;;10.97;89.28;102241.03;4993667;28;20073;-75
2021/07/23 03:28:23;;;;;;;25.88;12.88;;;;;;;11.00;89.72;102240.81;4991602;28;20066;-74
2021/07/23 03:30:48;;;;;;;26.17;11.93;;;;;;;11.01;89.52;102234.53;4992841;28;20038;-75
2021/07/23 03:33:14;;;;;;;22.60;12.38;;;;;;;11.02;89.23;102233.59;4992305;28;20061;-74
2021/07/23 03:35:39;;;;;;;24.05;11.50;;;;;;;10.99;88.61;102231.97;4992870;28;20076;-75
2021/07/23 03:38:04;;;;;;;25.63;12.05;;;;;;;10.97;88.93;102230.38;4993277;28;20038;-74
2021/07/23 03:40:30;;;;;;;24.10;12.32;;;;;;;10.99;89.39;102229.31;4992786;28;20065;-76
2021/07/23 03:42:55;;;;;;;22.02;11.75;;;;;;;10.96;88.79;102237.53;4993236;28;20030;-74
2021/07/23 03:45:21;;;;;;;20.67;9.65;;;;;;;10.90;88.23;102225.50;4993061;28;20038;-74
2021/07/23 03:47:46;;;;;;;20.92;10.85;;;;;;;10.88;88.42;102232.75;4992439;28;20058;-74
2021/07/23 03:50:11;;;;;;;31.00;14.85;;;;;;;10.90;89.39;102228.16;4992818;28;20053;-74
2021/07/23 03:52:37;;;;;;;28.48;13.25;;;;;;;10.98;89.59;102232.94;4991633;28;20026;-75
2021/07/23 03:55:03;;;;;;;31.48;14.48;;;;;;;11.10;89.74;102228.56;4994548;28;20078;-74
2021/07/23 03:57:28;;;;;;;31.15;14.55;;;;;;;11.27;90.22;102236.22;4996220;28;20042;-74
2021/07/23 03:59:53;;;;;;;23.23;12.38;;;;;;;11.44;90.40;102220.81;4992479;28;20158;-74
2021/07/23 04:02:19;;;;;;;25.95;13.02;;;;;;;11.58;90.21;102219.81;4992778;28;20490;-74
2021/07/23 04:04:44;;;;;;;24.27;13.15;;;;;;;11.70;89.81;102216.22;4992079;28;20529;-74
2021/07/23 04:07:09;;;;;;;25.35;12.90;;;;;;;11.84;89.74;102228.56;4992867;28;20483;-74
2021/07/23 04:09:35;;;;;;;26.17;12.60;;;;;;;11.96;89.15;102224.19;4992042;28;20085;-75
2021/07/23 04:12:00;;;;;;;23.58;12.13;;;;;;;12.08;88.88;102225.91;4992951;28;20529;-74
2021/07/23 04:14:26;;;;;;;23.88;11.57;;;;;;;12.23;88.17;102226.59;4992783;28;20097;-74
2021/07/23 04:16:51;;;;;;;26.33;11.77;;;;;;;12.33;87.58;102224.91;4992141;28;20386;-74
2021/07/23 04:19:17;;;;;;;20.70;11.85;;;;;;;12.45;87.60;102230.28;4992856;28;20073;-74
2021/07/23 04:21:42;;;;;;;20.02;11.02;;;;;;;12.54;87.12;102224.25;4992134;28;20437;-74
2021/07/23 04:24:08;;;;;;;16.58;10.40;;;;;;;12.64;86.94;102227.03;4991545;28;20030;-74
2021/07/23 04:26:34;;;;;;;16.50;10.45;;;;;;;12.73;86.63;102222.81;4992626;28;20030;-74
2021/07/23 04:29:01;;;;;;;19.08;11.10;;;;;;;12.80;86.79;102222.22;4993000;28;20042;-74
2021/07/23 04:31:27;;;;;;;20.40;11.98;;;;;;;12.88;85.98;102213.59;4992457;28;20471;-75
2021/07/23 04:33:52;;;;;;;19.88;11.35;;;;;;;12.95;86.20;102220.16;4992054;28;20037;-74
2021/07/23 04:36:17;;;;;;;18.15;10.77;;;;;;;13.01;85.82;102219.66;4992785;28;20037;-75
2021/07/23 04:38:43;;;;;;;18.83;10.75;;;;;;;13.09;85.29;102219.06;4992113;28;20062;-75
2021/07/23 04:41:08;;;;;;;19.42;10.88;;;;;;;13.14;85.26;102216.88;4995791;28;20081;-74
2021/07/23 04:43:38;;;;;;;18.65;10.85;;;;;;;13.20;85.10;102215.53;4996560;28;20034;-75
2021/07/23 04:46:04;;;;;;;17.35;9.63;;;;;;;13.28;84.42;102214.94;4996203;28;20041;-75
2021/07/23 04:48:30;;;;;;;14.20;9.18;;;;;;;13.34;83.60;102219.81;4996471;28;20034;-74
2021/07/23 04:50:55;;;;;;;15.82;9.68;;;;;;;13.39;83.59;102212.25;4995809;28;20356;-75
2021/07/23 04:53:21;;;;;;;19.20;10.27;;;;;;;13.46;83.46;102216.13;4996385;28;20442;-74
2021/07/23 04:55:50;;;;;;;16.20;9.75;;;;;;;13.52;83.30;102214.78;4995707;28;20073;-74
2021/07/23 04:58:16;;;;;;;17.50;9.95;;;;;;;13.57;83.03;102212.59;4996175;28;20035;-75
2021/07/23 05:00:42;;;;;;;19.33;9.75;;;;;;;13.62;82.56;102213.06;4995481;28;20041;-75
2021/07/23 05:03:07;;;;;;;13.52;8.88;;;;;;;13.69;81.95;102210.72;4994969;28;20035;-75
2021/07/23 05:05:33;;;;;;;16.75;8.40;;;;;;;13.76;81.39;102209.25;4996632;28;20056;-74
2021/07/23 05:07:58;;;;;;;15.95;7.72;;;;;;;13.83;81.41;102207.78;4994359;28;20100;-75
2021/07/23 05:10:24;;;;;;;14.27;7.80;;;;;;;13.89;81.04;102199.22;4996212;28;20078;-76
2021/07/23 05:12:49;;;;;;;15.05;7.93;;;;;;;13.98;80.44;102200.28;4995609;28;20069;-75
2021/07/23 05:15:15;;;;;;;13.45;8.23;;;;;;;14.03;79.60;102203.44;4994758;28;20038;-75
2021/07/23 05:17:41;;;;;;;11.68;7.53;;;;;;;14.11;79.89;102211.66;4995559;28;20035;-76
2021/07/23 05:20:08;;;;;;;13.60;7.93;;;;;;;14.19;78.72;102200.31;4995966;28;20388;-75
2021/07/23 05:22:33;;;;;;;20.92;8.15;;;;;;;14.28;79.04;102212.91;4995772;28;20077;-75
2021/07/23 05:24:59;;;;;;;19.60;8.13;;;;;;;14.37;78.16;102205.94;4995272;28;20054;-75
2021/07/23 05:27:26;;;;;;;14.98;7.10;;;;;;;14.45;77.83;102205.28;4994528;28;20049;-75
2021/07/23 05:29:51;;;;;;;10.10;6.53;;;;;;;14.52;77.70;102211.81;4993561;28;20591;-75
2021/07/23 05:32:18;;;;;;;10.05;6.93;;;;;;;14.59;78.32;102212.13;4995845;28;20117;-76
2021/07/23 05:34:43;;;;;;;9.65;6.22;;;;;;;14.61;75.94;102216.44;4994926;28;20030;-76
2021/07/23 05:37:08;;;;;;;14.25;6.72;;;;;;;14.67;76.12;102208.84;4995523;28;20434;-75
2021/07/23 05:39:34;;;;;;;11.38;7.00;;;;;;;14.73;76.42;102206.44;4995726;28;20100;-75
2021/07/23 05:42:03;;;;;;;8.98;6.43;;;;;;;14.82;75.80;102202.13;4995185;28;20030;-75
2021/07/23 05:44:31;;;;;;;12.75;6.15;;;;;;;14.93;74.96;102206.56;4995826;28;20039;-75
2021/07/23 05:46:59;;;;;;;13.70;6.45;;;;;;;14.99;75.15;102206.88;4995036;28;20031;-75
2021/07/23 05:49:25;;;;;;;11.60;7.13;;;;;;;15.04;74.10;102200.25;4995496;28;20030;-75
2021/07/23 05:51:50;;;;;;;11.70;6.82;;;;;;;15.09;73.57;102203.38;4994037;28;20096;-75
2021/07/23 05:54:16;;;;;;;11.50;7.13;;;;;;;15.13;73.91;102200.28;4995433;28;20038;-75
2021/07/23 05:56:41;;;;;;;8.15;5.88;;;;;;;15.18;74.22;102197.19;4995469;28;20054;-75
2021/07/23 05:59:06;;;;;;;13.18;6.68;;;;;;;15.23;74.12;102200.31;4994527;28;20039;-75
2021/07/23 06:01:31;;;;;;;11.48;6.93;;;;;;;15.28;73.80;102192.72;4995464;28;20026;-75
2021/07/23 06:03:57;;;;;;;10.90;6.70;;;;;;;15.35;75.52;102190.34;4993517;28;20041;-75
2021/07/23 06:06:22;;;;;;;11.75;6.55;;;;;;;15.40;73.99;102196.13;4995248;28;20034;-76
2021/07/23 06:08:47;;;;;;;10.02;6.70;;;;;;;15.44;71.84;102194.88;4994491;28;20058;-75
2021/07/23 06:11:13;;;;;;;11.13;6.45;;;;;;;15.51;72.75;102190.66;4995021;28;20133;-75
2021/07/23 06:13:38;;;;;;;9.30;6.60;;;;;;;15.60;71.47;102191.66;4994920;28;20042;-75
2021/07/23 06:16:05;;;;;;;13.68;7.20;;;;;;;15.71;72.24;102193.34;4994560;28;20034;-75
2021/07/23 06:18:31;;;;;;;10.85;6.97;;;;;;;15.84;71.40;102193.97;4995060;28;20042;-75
2021/07/23 06:20:56;;;;;;;11.50;6.85;;;;;;;15.95;71.28;102187.59;4994185;28;20490;-75
2021/07/23 06:23:22;;;;;;;9.75;6.30;;;;;;;16.03;71.41;102189.56;4995245;28;20085;-75
2021/07/23 06:25:47;;;;;;;9.90;6.10;;;;;;;16.06;70.44;102183.91;4994402;28;20030;-76
2021/07/23 06:28:13;;;;;;;18.08;7.00;;;;;;;16.12;71.98;102183.38;4994515;28;20038;-75
2021/07/23 06:30:38;;;;;;;8.93;6.82;;;;;;;16.19;71.16;102184.47;4994717;28;20089;-75
2021/07/23 06:33:03;;;;;;;9.32;6.10;;;;;;;16.25;71.01;102182.22;4994245;28;20061;-75
2021/07/23 06:35:30;;;;;;;13.32;5.90;;;;;;;16.33;70.84;102180.50;4994472;28;20034;-75
2021/07/23 06:37:57;;;;;;;12.57;6.45;;;;;;;16.37;70.39;102173.84;4992744;28;20049;-74
2021/07/23 06:40:22;;;;;;;11.32;6.35;;;;;;;16.47;69.62;102178.34;4994462;28;20038;-74
2021/07/23 06:42:48;;;;;;;11.13;6.60;;;;;;;16.52;69.90;102179.59;4976867;28;20057;-75
2021/07/23 06:45:13;;;;;;;8.27;6.20;;;;;;;16.55;68.69;102176.59;4993815;28;20498;-73
2021/07/23 06:47:39;;;;;;;13.45;6.20;;;;;;;16.63;68.87;102177.72;4994421;28;20042;-72
2021/07/23 06:50:05;;;;;;;8.10;5.82;;;;;;;16.67;67.66;102168.38;4993715;28;20476;-73
2021/07/23 06:52:30;;;;;;;10.50;5.50;;;;;;;16.76;69.04;102175.56;4994518;28;20121;-73
2021/07/23 06:54:55;;;;;;;9.80;5.72;;;;;;;16.85;68.47;102176.50;4993513;28;20117;-73
2021/07/23 06:57:21;;;;;;;10.32;5.97;;;;;;;16.92;67.61;102181.19;4993981;28;20031;-72
2021/07/23 06:59:47;;;;;;;9.82;5.75;;;;;;;16.97;68.18;102180.72;4994209;28;20458;-73
2021/07/23 07:02:13;;;;;;;8.20;5.43;;;;;;;17.07;67.96;102186.06;4988609;28;20118;-78
2021/07/23 07:04:38;;;;;;;8.70;6.10;;;;;;;17.14;67.07;102197.06;4991408;28;20130;-77
2021/07/23 07:07:07;;;;;;;8.73;6.35;;;;;;;17.25;67.43;102195.03;4990738;28;20069;-77
2021/07/23 07:09:33;;;;;;;10.35;6.10;;;;;;;17.29;68.16;102198.28;4990877;28;20108;-76
2021/07/23 07:11:58;;;;;;;12.77;6.40;;;;;;;17.35;67.46;102202.22;4990119;28;20041;-77
2021/07/23 07:14:25;;;;;;;10.95;5.78;;;;;;;17.45;67.08;102195.78;4990703;28;20461;-76
2021/07/23 07:16:51;;;;;;;10.05;5.97;;;;;;;17.52;67.33;102201.38;4991020;28;20518;-76
2021/07/23 07:19:16;;;;;;;7.18;5.80;;;;;;;17.57;66.48;102199.09;4990433;28;20089;-76
2021/07/23 07:21:48;;;;;;;13.15;6.20;;;;;;;17.60;65.38;102204.16;4990964;28;20038;-76
2021/07/23 07:24:20;;;;;;;9.43;5.72;;;;;;;17.62;65.83;102202.16;4990304;28;20030;-77
2021/07/23 07:26:49;;;;;;;8.07;5.38;;;;;;;17.69;66.28;102207.78;4990661;28;20038;-78
2021/07/23 07:29:15;;;;;;;12.75;5.53;;;;;;;17.70;66.88;102204.06;4990293;28;20037;-76
2021/07/23 07:31:41;;;;;;;9.90;5.65;;;;;;;17.77;65.14;102209.72;4990667;28;20038;-76
2021/07/23 07:34:07;;;;;;;10.73;6.03;;;;;;;17.79;64.76;102200.50;4990471;28;20041;-74
2021/07/23 07:36:33;;;;;;;10.52;6.90;;;;;;;17.94;64.50;102206.22;4990632;28;20396;-76
2021/07/23 07:38:59;;;;;;;8.43;5.68;;;;;;;18.05;64.84;102206.94;4990137;28;20038;-76
2021/07/23 07:41:27;;;;;;;10.15;6.68;;;;;;;18.10;64.79;102204.66;4990712;28;20046;-77
2021/07/23 07:43:53;;;;;;;13.10;6.28;;;;;;;18.19;65.34;102201.03;4990971;28;20108;-76
2021/07/23 07:46:18;;;;;;;10.23;7.00;;;;;;;18.17;64.29;102192.25;4989946;28;20073;-77
2021/07/23 07:48:44;;;;;;;10.00;6.43;;;;;;;18.17;63.23;102203.03;4989990;28;20038;-77
2021/07/23 07:51:09;;;;;;;8.95;6.05;;;;;;;18.18;65.74;102201.19;4990273;28;20034;-76
2021/07/23 07:53:35;;;;;;;8.48;6.13;;;;;;;18.36;64.52;102201.97;4990413;28;20034;-77
2021/07/23 07:56:01;;;;;;;10.60;6.55;;;;;;;18.50;64.97;102208.66;4989637;28;20037;-76
2021/07/23 07:58:27;;;;;;;12.52;7.00;;;;;;;18.49;63.56;102199.72;4990270;28;20121;-76
2021/07/23 08:00:52;;;;;;;10.27;6.53;;;;;;;18.63;62.86;102194.75;4989971;28;20054;-74
2021/07/23 08:03:18;;;;;;;9.05;6.28;;;;;;;18.76;63.66;102200.53;4989077;28;20414;-74
2021/07/23 08:05:43;;;;;;;11.70;7.20;;;;;;;18.83;61.85;102190.81;4979512;28;20086;-71
2021/07/23 08:08:11;;;;;;;11.95;6.90;;;;;;;18.87;62.68;102187.81;4971526;28;20039;-75
2021/07/23 08:10:36;;;;;;;13.05;6.80;;;;;;;18.88;63.01;102190.34;4972313;28;20054;-72
2021/07/23 08:13:07;;;;;;;8.55;6.13;;;;;;;19.06;62.67;102189.44;4972088;28;20050;-78
2021/07/23 08:15:35;;;;;;;10.60;6.68;;;;;;;19.07;62.81;102193.84;4972412;28;20471;-75
2021/07/23 08:18:02;;;;;;;11.20;7.03;;;;;;;19.07;61.55;102196.53;4972584;28;20430;-75
2021/07/23 08:20:28;;;;;;;9.95;6.35;;;;;;;19.02;62.27;102195.16;4971473;28;20114;-73
2021/07/23 08:22:53;;;;;;;9.90;7.40;;;;;;;19.20;61.68;102199.63;4972465;28;20126;-74
2021/07/23 08:25:19;;;;;;;10.23;6.50;;;;;;;19.36;62.05;102193.41;4971443;28;20066;-74
2021/07/23 08:27:44;;;;;;;13.13;7.10;;;;;;;19.38;60.97;102191.41;4973084;28;20538;-74
2021/07/23 08:30:10;;;;;;;13.30;7.38;;;;;;;19.40;61.49;102191.25;4970841;28;20073;-74
2021/07/23 08:32:38;;;;;;;13.90;7.15;;;;;;;19.34;62.31;102190.88;4972602;28;20035;-72
2021/07/23 08:35:04;;;;;;;12.18;6.85;;;;;;;19.36;61.76;102193.41;4971837;28;20031;-75
2021/07/23 08:37:30;;;;;;;9.80;7.30;;;;;;;19.15;61.01;102191.16;4972493;28;20129;-71
2021/07/23 08:39:55;;;;;;;13.52;7.35;;;;;;;19.04;63.06;102186.91;4972330;28;20130;-74
2021/07/23 08:42:28;;;;;;;20.30;7.78;;;;;;;19.12;61.50;102184.25;4972051;28;20035;-75
2021/07/23 08:44:58;;;;;;;11.85;7.75;;;;;;;19.12;62.92;102183.38;4987584;28;20379;-81
2021/07/23 08:47:24;;;;;;;17.38;7.57;;;;;;;19.18;61.69;102180.03;4972013;28;20643;-78
2021/07/23 08:49:53;;;;;;;10.77;7.35;;;;;;;19.28;61.85;102178.03;4971252;28;20518;-78
2021/07/23 08:52:46;;;;;;;8.95;7.40;;;;;;;19.43;61.36;102180.94;4971849;28;20131;-76
2021/07/23 08:55:17;;;;;;;12.80;8.20;;;;;;;19.44;60.28;102176.41;4972528;28;20038;-76
2021/07/23 08:57:43;;;;;;;12.38;7.55;;;;;;;19.60;61.87;102170.19;4973043;28;20382;-77
2021/07/23 09:00:11;;;;;;;11.20;8.07;;;;;;;19.70;61.59;102168.16;4972834;28;20038;-76
2021/07/23 09:02:52;;;;;;;13.88;7.78;;;;;;;19.99;59.21;102154.22;4973204;28;20031;-77
2021/07/23 09:05:19;;;;;;;14.23;7.65;;;;;;;20.16;59.26;102152.31;4971942;28;20114;-82
2021/07/23 09:07:45;;;;;;;9.73;7.80;;;;;;;20.15;58.44;102155.19;4972311;28;20197;-78
2021/07/23 09:10:12;;;;;;;11.63;7.63;;;;;;;20.43;59.42;102150.25;4972197;28;20535;-77
2021/07/23 09:12:46;;;;;;;15.40;8.10;;;;;;;20.64;58.66;102146.97;4972706;28;20471;-75
2021/07/23 09:15:21;;;;;;;13.40;8.20;;;;;;;20.78;57.61;102140.88;4972388;28;20044;-81
2021/07/23 09:17:47;;;;;;;10.15;7.80;;;;;;;21.00;57.81;102143.81;4975525;28;20027;-75
2021/07/23 09:20:13;;;;;;;12.82;8.38;;;;;;;21.20;56.83;102146.94;4972984;28;20031;-73
2021/07/23 09:22:49;;;;;;;11.90;8.38;;;;;;;20.82;55.95;102135.94;4975641;28;20416;-75
2021/07/23 09:25:15;;;;;;;11.15;7.88;;;;;;;21.08;56.22;102138.38;4973172;28;20039;-76
2021/07/23 09:27:41;;;;;;;11.43;7.63;;;;;;;21.24;57.32;102132.03;4974406;28;20046;-77
2021/07/23 09:30:07;;;;;;;13.40;8.05;;;;;;;21.21;56.73;102131.53;4976002;28;20058;-76
2021/07/23 09:32:33;;;;;;;10.48;7.95;;;;;;;21.31;55.15;102130.28;4976592;28;20050;-76
2021/07/23 09:35:13;;;;;;;12.25;7.50;;;;;;;21.56;55.67;102126.59;4974724;28;20038;-74
2021/07/23 09:37:51;;;;;;;11.43;8.20;;;;;;;21.73;55.58;102121.91;4975702;28;20133;-73
2021/07/23 09:40:16;;;;;;;12.32;8.02;;;;;;;21.96;54.92;102119.13;4974581;28;20066;-73
2021/07/23 09:42:42;;;;;;;14.23;7.68;;;;;;;22.15;54.72;102118.63;4975385;28;20105;-75
2021/07/23 09:45:08;;;;;;;11.40;7.55;;;;;;;22.39;52.91;102122.13;4975390;28;20035;-74
2021/07/23 09:47:33;;;;;;;11.00;7.70;;;;;;;22.44;51.57;102127.84;4974972;28;20031;-74
2021/07/23 09:50:01;;;;;;;11.68;7.38;;;;;;;22.38;52.89;102122.31;4975167;28;20298;-74
2021/07/23 09:52:27;;;;;;;12.02;7.28;;;;;;;22.38;52.97;102120.44;4974399;28;20487;-74
2021/07/23 09:54:52;;;;;;;11.30;7.07;;;;;;;22.44;53.32;102127.84;4974908;28;20041;-77
2021/07/23 09:57:23;;;;;;;13.43;7.68;;;;;;;22.27;52.74;102124.41;4974300;28;20035;-74
2021/07/23 10:00:01;;;;;;;11.20;7.57;;;;;;;22.06;53.65;102121.59;4974906;28;20062;-74
2021/07/23 10:02:28;;;;;;;11.80;7.85;;;;;;;21.82;53.28;102123.50;4974236;28;20031;-76
2021/07/23 10:05:06;;;;;;;11.30;7.70;;;;;;;21.89;52.41;102124.47;4974682;28;20050;-75
2021/07/23 10:07:44;;;;;;;13.52;6.80;;;;;;;21.76;54.42;102133.19;4974324;28;20042;-75
2021/07/23 10:10:13;;;;;;;13.70;7.40;;;;;;;21.71;53.75;102129.38;4974938;28;20086;-75
2021/07/23 10:12:43;;;;;;;15.57;6.60;;;;;;;21.63;54.88;102124.84;4974774;28;20066;-75
2021/07/23 10:15:10;;;;;;;11.30;7.27;;;;;;;21.49;54.76;102121.84;4975368;28;20081;-75
2021/07/23 10:17:36;;;;;;;14.35;7.32;;;;;;;21.49;55.92;102118.31;4973926;28;20274;-75
2021/07/23 10:20:03;;;;;;;11.18;8.07;;;;;;;21.53;53.90;102113.41;4974794;28;20046;-78
2021/07/23 10:22:29;;;;;;;11.93;8.38;;;;;;;21.34;52.93;102112.84;4974086;28;20039;-75
2021/07/23 10:24:55;;;;;;;9.27;7.43;;;;;;;21.21;55.55;102105.31;4974494;28;20105;-73
2021/07/23 10:27:23;;;;;;;11.25;7.95;;;;;;;21.13;54.59;102113.50;4988915;28;20063;-73
2021/07/23 10:29:51;;;;;;;11.88;7.53;;;;;;;20.91;55.96;102107.84;4974292;28;20030;-75
2021/07/23 10:32:37;;;;;;;11.25;7.65;;;;;;;21.02;55.03;102103.06;4973572;28;20478;-75
2021/07/23 10:35:17;;;;;;;14.60;7.28;;;;;;;21.08;56.88;102099.66;4974050;28;20483;-76
2021/07/23 10:37:42;;;;;;;14.43;8.02;;;;;;;21.20;54.85;102094.66;4974572;28;20587;-74
2021/07/23 10:40:07;;;;;;;11.57;8.27;;;;;;;21.14;54.78;102099.78;4974195;28;20031;-74
2021/07/23 10:42:37;;;;;;;13.38;7.68;;;;;;;21.23;55.16;102092.44;4973392;28;20045;-74
2021/07/23 10:45:07;;;;;;;10.40;7.85;;;;;;;21.26;54.29;102085.84;4974279;28;20475;-74
2021/07/23 10:47:38;;;;;;;10.75;7.40;;;;;;;21.57;54.36;102080.41;4973879;28;20088;-75
2021/07/23 10:50:09;;;;;;;11.68;7.55;;;;;;;21.90;52.59;102077.38;4974015;28;20035;-74
2021/07/23 10:52:39;;;;;;;12.60;7.28;;;;;;;22.43;52.22;102071.09;4973440;28;20575;-74
2021/07/23 10:55:16;;;;;;;11.18;6.78;;;;;;;22.52;51.98;102068.06;4980115;28;20533;-74
2021/07/23 10:57:43;;;;;;;12.63;7.00;;;;;;;22.78;49.56;102074.00;4991596;28;20108;-73
2021/07/23 11:00:09;;;;;;;10.27;6.43;;;;;;;22.67;49.53;102061.78;4991395;28;20042;-74
2021/07/23 11:02:34;;;;;;;13.80;6.60;;;;;;;22.77;51.38;102059.63;4990902;28;20042;-74
2021/07/23 11:05:14;;;;;;;11.65;6.60;;;;;;;22.63;49.95;102057.78;4991612;28;20403;-75
2021/07/23 11:07:40;;;;;;;12.00;6.90;;;;;;;22.96;51.75;102049.16;4990508;28;20034;-75
2021/07/23 11:10:11;;;;;;;11.60;6.72;;;;;;;23.55;48.06;102042.66;4990958;28;20482;-75
2021/07/23 11:12:45;;;;;;;9.40;7.18;;;;;;;24.04;47.88;102046.41;4990641;28;20046;-78
2021/07/23 11:15:15;;;;;;;11.55;6.93;;;;;;;24.60;46.91;102042.72;4991278;28;20191;-74